Time;durP1;ratioP1;P1;durP2;ratioP2;P2;SDS_P1;SDS_P2;PMS_P1;PMS_P2;Temp;Humidity;BMP_temperature;BMP_pressure;BME280_temperature;BME280_humidity;BME280_pressure;Samples;Min_cycle;Max_cycle;Signal;HPM_P1;HPM_P2
2022/01/28 00:05:00;;;;;;;20.03;10.23;;;6.80;99.90;;;;;;5017959;28;20173;-72
2022/01/28 00:07:26;;;;;;;14.53;8.70;;;6.80;99.90;;;;;;5055734;28;20208;-71
2022/01/28 00:09:51;;;;;;;17.97;9.10;;;6.80;99.90;;;;;;5055828;28;20506;-71
2022/01/28 00:12:17;;;;;;;19.10;9.23;;;6.80;99.90;;;;;;5055540;28;20161;-71
2022/01/28 00:15:05;;;;;;;18.37;8.90;;;6.70;99.90;;;;;;5055921;28;20242;-71
2022/01/28 00:39:13;;;;;;;24.07;9.83;;;6.50;99.90;;;;;;4974327;28;20624;-72
2022/01/28 00:41:39;;;;;;;18.60;9.73;;;6.50;99.90;;;;;;4974253;28;20211;-72
2022/01/28 00:44:05;;;;;;;15.97;9.77;;;6.50;99.90;;;;;;4973508;28;20180;-72
2022/01/28 00:46:31;;;;;;;19.30;9.57;;;6.40;99.90;;;;;;4974504;28;20184;-72
2022/01/28 00:48:56;;;;;;;15.93;9.50;;;6.40;99.90;;;;;;4974388;28;20302;-70
2022/01/28 00:51:22;;;;;;;17.77;9.33;;;6.40;99.90;;;;;;4974319;28;20211;-72
2022/01/28 00:53:48;;;;;;;18.27;9.13;;;6.40;99.90;;;;;;4990846;28;20694;-72
2022/01/28 00:56:14;;;;;;;19.13;8.83;;;6.40;99.90;;;;;;5054967;28;20180;-72
2022/01/28 00:58:39;;;;;;;18.03;8.87;;;6.30;99.90;;;;;;5055114;28;20199;-72
2022/01/28 01:01:05;;;;;;;16.03;8.87;;;6.30;99.90;;;;;;5055079;28;20542;-72
2022/01/28 01:03:31;;;;;;;15.33;9.40;;;6.40;99.90;;;;;;5055299;28;20617;-71
2022/01/28 01:05:56;;;;;;;22.27;9.00;;;6.40;99.90;;;;;;5054737;28;20206;-72
2022/01/28 01:08:22;;;;;;;18.43;9.13;;;6.40;99.90;;;;;;5054358;28;20209;-73
2022/01/28 01:10:49;;;;;;;20.20;9.10;;;6.40;99.90;;;;;;5036913;28;20577;-72
2022/01/28 01:13:15;;;;;;;20.47;9.47;;;6.30;99.90;;;;;;5054930;28;20254;-72
2022/01/28 01:15:44;;;;;;;16.53;8.53;;;6.30;99.90;;;;;;5054734;28;20222;-72
2022/01/28 01:23:15;;;;;;;19.27;9.13;;;6.20;99.90;;;;;;5054177;28;20218;-72
2022/01/28 01:25:52;;;;;;;19.17;8.33;;;6.20;99.90;;;;;;5054516;28;20217;-72
2022/01/28 01:28:20;;;;;;;20.33;8.87;;;6.20;99.90;;;;;;5054498;28;20216;-72
2022/01/28 01:30:46;;;;;;;16.10;8.57;;;6.20;99.90;;;;;;5054416;28;20220;-72
2022/01/28 01:33:12;;;;;;;24.00;9.07;;;6.30;99.90;;;;;;5054639;28;20177;-72
2022/01/28 01:35:39;;;;;;;17.53;8.67;;;6.30;99.90;;;;;;5036514;28;20523;-72
2022/01/28 01:38:08;;;;;;;14.80;8.20;;;6.30;99.90;;;;;;5053868;28;20189;-72
2022/01/28 01:40:42;;;;;;;27.23;8.73;;;6.20;99.90;;;;;;5054126;28;20668;-72
2022/01/28 01:43:30;;;;;;;18.30;8.00;;;6.20;99.90;;;;;;5054304;28;20164;-72
2022/01/28 01:53:59;;;;;;;18.07;8.03;;;6.20;99.90;;;;;;5054008;28;20177;-71
2022/01/28 01:56:25;;;;;;;18.23;8.57;;;6.20;99.90;;;;;;5053870;28;20169;-72
2022/01/28 01:58:51;;;;;;;23.03;8.50;;;6.20;99.90;;;;;;5053722;28;21071;-72
2022/01/28 02:01:17;;;;;;;20.40;9.50;;;6.20;99.90;;;;;;5053875;28;20169;-71
2022/01/28 02:03:42;;;;;;;21.03;9.43;;;6.20;99.90;;;;;;5053686;28;20267;-73
2022/01/28 02:06:09;;;;;;;19.43;9.47;;;6.10;99.90;;;;;;5053711;28;20184;-71
2022/01/28 02:08:36;;;;;;;22.63;9.47;;;6.10;99.90;;;;;;5035774;28;20201;-72
2022/01/28 02:11:03;;;;;;;14.50;9.03;;;6.00;99.90;;;;;;5053778;28;20165;-72
2022/01/28 02:13:30;;;;;;;20.63;9.60;;;6.00;99.90;;;;;;5053643;28;20177;-72
2022/01/28 02:15:57;;;;;;;19.00;10.00;;;6.00;99.90;;;;;;5053555;28;20197;-73
2022/01/28 02:18:24;;;;;;;22.43;10.40;;;5.90;99.90;;;;;;5053512;28;20196;-73
2022/01/28 02:20:55;;;;;;;21.83;11.03;;;5.80;99.90;;;;;;5053108;28;20184;-73
2022/01/28 02:23:22;;;;;;;23.30;10.17;;;5.80;99.90;;;;;;5053510;28;20180;-72
2022/01/28 02:25:48;;;;;;;22.27;10.63;;;5.80;99.90;;;;;;5053058;28;20236;-72
2022/01/28 02:28:18;;;;;;;22.63;10.90;;;5.70;99.90;;;;;;5053598;28;20258;-72
2022/01/28 02:30:44;;;;;;;18.37;10.37;;;5.80;99.90;;;;;;5053471;28;20197;-72
2022/01/28 02:33:21;;;;;;;20.53;10.60;;;5.80;99.90;;;;;;5053368;28;20223;-72
2022/01/28 02:35:49;;;;;;;21.80;10.20;;;5.70;99.90;;;;;;5052856;28;20264;-74
2022/01/28 02:38:17;;;;;;;28.03;11.20;;;5.70;99.90;;;;;;5053465;28;20181;-73
2022/01/28 02:40:49;;;;;;;24.63;11.27;;;5.60;99.90;;;;;;5053056;28;20193;-72
2022/01/28 02:45:47;;;;;;;21.57;11.30;;;5.60;99.90;;;;;;5053316;28;20200;-72
2022/01/28 02:48:22;;;;;;;24.33;11.60;;;5.60;99.90;;;;;;5053032;28;20197;-72
2022/01/28 02:53:39;;;;;;;17.57;11.13;;;5.60;99.90;;;;;;5053362;28;20185;-73
2022/01/28 02:56:14;;;;;;;22.10;10.67;;;5.60;99.90;;;;;;5035429;28;20540;-71
2022/01/28 02:58:40;;;;;;;22.67;11.17;;;5.60;99.90;;;;;;5052976;28;20183;-72
2022/01/28 03:01:06;;;;;;;27.03;10.77;;;5.60;99.90;;;;;;5052855;28;20181;-72
2022/01/28 03:03:31;;;;;;;22.63;10.73;;;5.50;99.90;;;;;;5052961;28;20637;-72
2022/01/28 03:05:57;;;;;;;21.30;9.70;;;5.50;99.90;;;;;;5052691;28;20254;-72
2022/01/28 03:08:26;;;;;;;25.43;10.90;;;5.50;99.90;;;;;;5055667;28;20219;-73
2022/01/28 03:14:00;;;;;;;19.27;10.30;;;5.50;99.90;;;;;;5057352;28;20179;-72
2022/01/28 03:16:29;;;;;;;17.33;10.10;;;5.50;99.90;;;;;;5057142;28;20188;-73
2022/01/28 03:19:02;;;;;;;21.20;10.07;;;5.50;99.90;;;;;;5056649;28;20177;-73
2022/01/28 03:23:58;;;;;;;21.10;9.83;;;5.50;99.90;;;;;;5057054;28;20217;-71
2022/01/28 03:26:26;;;;;;;21.00;10.50;;;5.50;99.90;;;;;;5056531;28;20228;-72
2022/01/28 03:28:52;;;;;;;25.10;10.97;;;5.50;99.90;;;;;;5056883;28;20212;-73
2022/01/28 03:31:18;;;;;;;22.57;10.43;;;5.50;99.90;;;;;;5056712;28;20166;-73
2022/01/28 03:33:44;;;;;;;16.37;9.33;;;5.50;99.90;;;;;;5056271;28;20172;-73
2022/01/28 03:36:11;;;;;;;20.87;9.90;;;5.50;99.90;;;;;;5056813;28;20174;-72
2022/01/28 03:38:39;;;;;;;22.37;10.10;;;5.50;99.90;;;;;;5056339;28;20177;-71
2022/01/28 03:41:06;;;;;;;19.60;9.47;;;5.50;99.90;;;;;;5056333;28;20197;-73
2022/01/28 03:43:32;;;;;;;20.83;9.77;;;5.50;99.90;;;;;;5056449;28;20633;-73
2022/01/28 03:45:57;;;;;;;23.53;10.80;;;5.50;99.90;;;;;;5056459;28;20184;-72
2022/01/28 03:48:23;;;;;;;23.27;11.30;;;5.50;99.90;;;;;;5055929;28;20200;-73
2022/01/28 03:50:51;;;;;;;19.53;11.03;;;5.50;99.90;;;;;;5056366;28;20219;-72
2022/01/28 03:53:17;;;;;;;22.53;10.93;;;5.40;99.90;;;;;;5056374;28;20172;-71
2022/01/28 03:55:42;;;;;;;22.90;11.13;;;5.50;99.90;;;;;;5056194;28;20174;-73
2022/01/28 03:58:08;;;;;;;16.67;10.30;;;5.50;99.90;;;;;;5056305;28;20651;-73
2022/01/28 04:00:34;;;;;;;20.97;11.77;;;5.50;99.90;;;;;;5055991;28;20194;-72
2022/01/28 04:03:46;;;;;;;21.27;12.20;;;5.40;99.90;;;;;;5055838;28;20166;-71
2022/01/28 04:11:36;;;;;;;24.87;11.80;;;5.30;99.90;;;;;;5056037;28;20196;-71
2022/01/28 04:14:19;;;;;;;22.73;11.87;;;5.20;99.90;;;;;;5055432;28;20180;-72
2022/01/28 04:19:29;;;;;;;20.23;11.73;;;5.20;99.90;;;;;;5055901;28;20188;-72
2022/01/28 04:21:55;;;;;;;34.53;12.20;;;5.30;99.90;;;;;;5055565;28;20578;-73
2022/01/28 04:24:20;;;;;;;28.83;12.37;;;5.30;99.90;;;;;;5055742;28;20173;-72
2022/01/28 04:26:46;;;;;;;25.43;12.50;;;5.30;99.90;;;;;;5055468;28;20232;-73
2022/01/28 04:29:13;;;;;;;23.30;13.20;;;5.30;99.90;;;;;;5055226;28;20220;-72
2022/01/28 04:31:42;;;;;;;20.73;11.87;;;5.20;99.90;;;;;;5055096;28;20243;-71
2022/01/28 04:34:09;;;;;;;19.80;12.33;;;5.20;99.90;;;;;;5055592;28;20173;-73
2022/01/28 04:36:39;;;;;;;33.07;12.47;;;5.20;99.90;;;;;;5055341;28;20161;-72
2022/01/28 04:39:22;;;;;;;26.10;12.07;;;5.10;99.90;;;;;;5055328;28;20169;-72
2022/01/28 04:44:20;;;;;;;28.13;12.97;;;5.10;99.90;;;;;;5055255;28;20169;-72
2022/01/28 04:46:55;;;;;;;28.13;12.53;;;5.00;99.90;;;;;;5054342;28;20257;-73
2022/01/28 04:49:31;;;;;;;22.83;12.70;;;5.00;99.90;;;;;;5055201;28;20200;-73
2022/01/28 05:23:32;;;;;;;33.13;15.07;;;4.90;99.90;;;;;;5054245;28;20203;-71
2022/01/28 05:28:23;;;;;;;23.07;13.20;;;4.80;99.90;;;;;;5054226;28;20223;-71
2022/01/28 05:30:49;;;;;;;20.23;13.93;;;4.70;99.90;;;;;;5052982;28;20169;-72
2022/01/28 05:33:15;;;;;;;27.87;13.93;;;4.70;99.90;;;;;;5053823;28;20181;-70
2022/01/28 05:35:40;;;;;;;37.60;14.77;;;4.60;99.90;;;;;;5054019;28;20248;-72
2022/01/28 05:38:06;;;;;;;30.70;14.57;;;4.60;99.90;;;;;;5053865;28;20185;-72
2022/01/28 05:40:32;;;;;;;25.83;14.50;;;4.60;99.90;;;;;;5053749;28;20409;-71
2022/01/28 05:42:57;;;;;;;26.07;14.47;;;4.60;99.90;;;;;;5053704;28;20177;-71
2022/01/28 05:45:23;;;;;;;31.40;15.10;;;4.70;99.90;;;;;;5053618;28;20177;-71
2022/01/28 05:47:48;;;;;;;26.27;14.50;;;4.60;99.90;;;;;;5053239;28;20640;-71
2022/01/28 05:50:14;;;;;;;27.37;15.07;;;4.60;99.90;;;;;;5053662;28;20227;-71
2022/01/28 05:52:40;;;;;;;26.10;15.40;;;4.50;99.90;;;;;;5053372;28;20165;-72
2022/01/28 05:55:06;;;;;;;28.97;15.30;;;4.40;99.90;;;;;;5053327;28;20183;-71
2022/01/28 05:57:32;;;;;;;27.67;15.47;;;4.40;99.90;;;;;;5053039;28;20230;-72
2022/01/28 05:59:57;;;;;;;32.17;15.67;;;4.30;99.90;;;;;;5052918;28;20571;-72
2022/01/28 06:02:23;;;;;;;25.60;15.53;;;4.30;99.90;;;;;;5053114;28;20166;-72
2022/01/28 06:04:49;;;;;;;33.47;16.10;;;4.30;99.90;;;;;;5053422;28;20209;-73
2022/01/28 06:07:14;;;;;;;30.67;16.87;;;4.30;99.90;;;;;;5053247;28;20175;-71
2022/01/28 06:09:40;;;;;;;32.90;16.50;;;4.20;99.90;;;;;;5052886;28;20219;-72
2022/01/28 06:12:06;;;;;;;28.73;16.67;;;4.20;99.90;;;;;;5052541;28;20174;-72
2022/01/28 06:14:32;;;;;;;30.97;16.87;;;4.20;99.90;;;;;;5052965;28;20184;-72
2022/01/28 06:16:58;;;;;;;33.30;18.07;;;4.20;99.90;;;;;;5052897;28;20165;-71
2022/01/28 06:19:23;;;;;;;30.20;16.53;;;4.20;99.90;;;;;;5052881;28;20177;-72
2022/01/28 06:21:49;;;;;;;30.00;17.47;;;4.20;99.90;;;;;;5053000;28;20177;-72
2022/01/28 06:24:14;;;;;;;32.10;17.10;;;4.20;99.90;;;;;;5052623;28;20620;-72
2022/01/28 06:26:41;;;;;;;36.00;18.77;;;4.20;99.90;;;;;;5065018;28;20220;-71
2022/01/28 06:29:07;;;;;;;35.97;19.27;;;4.10;99.90;;;;;;5072480;28;20261;-71
2022/01/28 06:31:33;;;;;;;32.83;18.77;;;4.10;99.90;;;;;;5072141;28;20173;-72
2022/01/28 06:33:58;;;;;;;37.53;19.07;;;4.10;99.90;;;;;;5072461;28;20191;-73
2022/01/28 06:36:24;;;;;;;34.47;18.93;;;4.00;99.90;;;;;;5072302;28;20172;-72
2022/01/28 06:38:49;;;;;;;27.03;17.77;;;4.00;99.90;;;;;;5072443;28;20198;-71
2022/01/28 06:41:15;;;;;;;39.77;20.40;;;3.90;99.90;;;;;;5071385;28;20361;-73
2022/01/28 06:43:41;;;;;;;32.80;19.30;;;3.90;99.90;;;;;;5071794;28;20183;-73
2022/01/28 06:46:07;;;;;;;35.17;18.93;;;3.90;99.90;;;;;;5071956;28;20179;-72
2022/01/28 06:48:33;;;;;;;44.67;20.70;;;3.90;99.90;;;;;;5072287;28;20239;-72
2022/01/28 06:50:58;;;;;;;35.27;20.97;;;4.00;99.90;;;;;;5071339;28;20169;-72
2022/01/28 06:53:24;;;;;;;34.63;21.43;;;4.10;99.90;;;;;;5072224;28;20175;-73
2022/01/28 06:55:50;;;;;;;48.07;21.97;;;4.10;99.90;;;;;;5071832;28;20177;-72
2022/01/28 06:58:15;;;;;;;45.10;23.17;;;4.10;99.90;;;;;;5071132;28;20186;-72
2022/01/28 07:00:41;;;;;;;48.57;22.67;;;4.10;99.90;;;;;;5071806;28;20259;-73
2022/01/28 07:03:08;;;;;;;44.27;23.67;;;4.00;99.90;;;;;;5071867;28;20263;-73
2022/01/28 07:05:34;;;;;;;47.57;25.20;;;4.10;99.90;;;;;;5072297;28;20172;-71
2022/01/28 07:08:00;;;;;;;44.70;24.37;;;4.10;99.90;;;;;;5072094;28;20318;-72
2022/01/28 07:10:26;;;;;;;43.53;25.50;;;4.10;99.90;;;;;;5071230;28;20247;-71
2022/01/28 07:12:54;;;;;;;47.80;26.67;;;4.10;99.90;;;;;;5071763;28;20623;-72
2022/01/28 07:15:23;;;;;;;47.13;26.17;;;4.10;99.90;;;;;;5071785;28;20172;-72
2022/01/28 07:17:49;;;;;;;41.53;25.40;;;4.10;99.90;;;;;;5071789;28;20176;-72
2022/01/28 07:20:14;;;;;;;43.83;26.30;;;4.10;99.90;;;;;;5071963;28;20217;-72
2022/01/28 07:22:40;;;;;;;50.13;26.87;;;4.10;99.90;;;;;;5071650;28;20544;-72
2022/01/28 07:25:06;;;;;;;53.63;25.30;;;4.00;99.90;;;;;;5069777;28;20694;-72
2022/01/28 07:27:32;;;;;;;49.57;25.77;;;4.10;99.90;;;;;;5072044;28;20176;-72
2022/01/28 07:29:57;;;;;;;51.43;27.37;;;4.10;99.90;;;;;;5071265;28;20505;-72
2022/01/28 07:32:24;;;;;;;49.00;26.77;;;4.20;99.90;;;;;;5072042;28;20184;-72
2022/01/28 07:34:49;;;;;;;49.30;26.83;;;4.10;99.90;;;;;;5071618;28;20173;-71
2022/01/28 07:37:15;;;;;;;45.50;25.57;;;4.20;99.90;;;;;;5070289;28;20317;-72
2022/01/28 07:39:41;;;;;;;53.87;27.00;;;4.30;99.90;;;;;;5070874;28;20187;-72
2022/01/28 07:42:07;;;;;;;47.20;28.07;;;4.40;99.90;;;;;;5071632;28;20185;-73
2022/01/28 07:44:32;;;;;;;46.47;26.63;;;4.40;99.90;;;;;;5071226;28;20244;-72
2022/01/28 07:46:58;;;;;;;58.67;27.83;;;4.40;99.90;;;;;;5071311;28;20161;-72
2022/01/28 07:49:24;;;;;;;54.50;29.27;;;4.40;99.90;;;;;;5071147;28;20299;-72
2022/01/28 07:51:49;;;;;;;50.57;26.27;;;4.50;99.90;;;;;;5071573;28;20184;-72
2022/01/28 07:54:15;;;;;;;57.73;28.37;;;4.50;99.90;;;;;;5073135;28;20180;-73
2022/01/28 07:56:42;;;;;;;54.83;27.97;;;4.50;99.90;;;;;;5075362;28;20179;-73
2022/01/28 07:59:09;;;;;;;54.77;26.87;;;4.50;99.90;;;;;;5075044;28;20177;-72
2022/01/28 08:01:35;;;;;;;59.97;28.43;;;4.60;99.90;;;;;;5073317;28;20172;-72
2022/01/28 08:04:01;;;;;;;56.70;28.00;;;4.50;99.90;;;;;;5064423;28;20258;-73
2022/01/28 08:06:26;;;;;;;61.53;28.70;;;4.50;99.90;;;;;;5054271;28;20620;-71
2022/01/28 08:08:53;;;;;;;73.90;27.30;;;4.50;99.90;;;;;;5067530;28;20212;-73
2022/01/28 08:11:18;;;;;;;51.90;26.80;;;4.50;99.90;;;;;;5069116;28;20214;-73
2022/01/28 08:13:44;;;;;;;48.00;26.30;;;4.50;99.90;;;;;;5056041;28;20264;-73
2022/01/28 08:16:10;;;;;;;60.93;26.60;;;4.50;99.90;;;;;;5063156;28;20259;-73
2022/01/28 08:18:36;;;;;;;74.53;27.87;;;4.50;99.90;;;;;;5065580;28;20188;-74
2022/01/28 08:21:02;;;;;;;51.37;26.17;;;4.60;99.90;;;;;;5066151;28;20564;-73
2022/01/28 08:23:27;;;;;;;56.00;26.17;;;4.60;99.90;;;;;;5065313;28;20277;-72
2022/01/28 08:25:55;;;;;;;49.17;26.07;;;4.70;99.90;;;;;;5050168;28;20232;-72
2022/01/28 08:28:20;;;;;;;62.43;26.90;;;4.80;99.90;;;;;;5043541;28;20681;-72
2022/01/28 08:30:49;;;;;;;56.67;25.63;;;4.80;99.90;;;;;;5043411;28;20169;-73
2022/01/28 08:33:15;;;;;;;50.13;26.23;;;4.80;99.90;;;;;;5036384;28;20299;-73
2022/01/28 08:35:40;;;;;;;65.70;26.30;;;4.80;99.90;;;;;;5044666;28;20175;-71
2022/01/28 08:38:16;;;;;;;51.30;26.13;;;4.90;99.90;;;;;;5041691;28;20231;-73
2022/01/28 08:40:42;;;;;;;45.93;24.67;;;5.10;99.90;;;;;;5040559;28;20208;-74
2022/01/28 08:43:08;;;;;;;47.93;25.37;;;5.00;99.90;;;;;;5045685;28;20645;-72
2022/01/28 08:45:34;;;;;;;44.40;24.83;;;5.00;99.90;;;;;;5036658;28;20239;-72
2022/01/28 08:47:59;;;;;;;43.00;25.80;;;5.30;99.90;;;;;;5040403;28;20316;-72
2022/01/28 08:50:28;;;;;;;39.13;24.97;;;5.40;99.90;;;;;;5042877;28;20223;-73
2022/01/28 08:52:54;;;;;;;43.60;25.23;;;5.40;99.90;;;;;;5048668;28;20177;-73
2022/01/28 08:55:19;;;;;;;38.40;23.73;;;5.50;99.90;;;;;;5044717;28;20231;-72
2022/01/28 08:57:45;;;;;;;53.70;24.83;;;5.50;99.90;;;;;;5046168;28;20637;-72
2022/01/28 09:00:17;;;;;;;46.70;24.43;;;5.60;99.90;;;;;;5042004;28;20184;-72
2022/01/28 09:02:44;;;;;;;48.13;23.40;;;5.50;99.90;;;;;;5042962;28;20196;-73
2022/01/28 09:05:10;;;;;;;42.27;24.07;;;5.50;99.90;;;;;;5046803;28;20577;-72
2022/01/28 09:07:36;;;;;;;41.50;23.67;;;5.60;99.90;;;;;;5040418;28;20180;-74
2022/01/28 09:10:10;;;;;;;41.73;24.37;;;5.60;99.90;;;;;;5038387;28;20543;-74
2022/01/28 09:12:39;;;;;;;40.97;23.07;;;5.80;99.90;;;;;;5050520;28;20170;-74
2022/01/28 09:15:08;;;;;;;36.83;22.37;;;6.00;99.90;;;;;;5038362;28;20177;-73
2022/01/28 09:17:34;;;;;;;42.70;20.93;;;6.30;99.90;;;;;;5041806;28;20532;-74
2022/01/28 09:20:01;;;;;;;32.77;20.00;;;6.60;99.90;;;;;;5038381;28;20177;-73
2022/01/28 09:22:27;;;;;;;30.80;19.07;;;6.70;99.90;;;;;;5048266;28;20169;-73
2022/01/28 09:24:53;;;;;;;33.97;19.30;;;7.00;99.90;;;;;;5043300;28;20188;-72
2022/01/28 09:27:18;;;;;;;34.07;20.43;;;7.10;99.90;;;;;;5035064;28;20552;-73
2022/01/28 09:29:44;;;;;;;33.57;21.10;;;7.00;99.90;;;;;;5043192;28;20260;-73
2022/01/28 09:32:10;;;;;;;31.87;18.67;;;7.30;99.90;;;;;;5046342;28;20169;-72
2022/01/28 09:34:36;;;;;;;26.77;19.23;;;7.40;99.90;;;;;;5050792;28;20672;-73
2022/01/28 09:37:01;;;;;;;30.40;18.90;;;7.60;99.90;;;;;;5032630;28;20593;-72
2022/01/28 09:39:29;;;;;;;36.43;20.50;;;7.60;99.90;;;;;;5039590;28;20588;-73
2022/01/28 09:42:00;;;;;;;34.07;20.33;;;7.50;99.90;;;;;;5043014;28;20364;-72
2022/01/28 09:44:34;;;;;;;35.03;19.93;;;7.30;99.90;;;;;;5038306;28;20178;-73
2022/01/28 09:47:01;;;;;;;30.47;19.67;;;7.20;99.90;;;;;;5035711;28;20268;-73
2022/01/28 09:49:26;;;;;;;34.90;20.10;;;7.00;99.90;;;;;;5044994;28;20217;-73
2022/01/28 09:51:53;;;;;;;42.17;20.80;;;6.90;99.90;;;;;;5037960;28;20197;-73
2022/01/28 09:54:18;;;;;;;31.23;19.50;;;7.00;99.90;;;;;;5047245;28;20177;-73
2022/01/28 09:56:44;;;;;;;28.40;19.40;;;6.80;99.90;;;;;;5035712;28;20637;-73
2022/01/28 09:59:09;;;;;;;36.13;19.97;;;7.00;99.90;;;;;;5037152;28;20177;-73
2022/01/28 10:01:52;;;;;;;27.63;19.60;;;7.10;99.90;;;;;;5040795;28;20173;-75
2022/01/28 10:04:19;;;;;;;29.97;19.80;;;7.10;99.90;;;;;;5037253;28;20335;-73
2022/01/28 10:06:46;;;;;;;51.57;19.87;;;7.00;99.90;;;;;;5045569;28;20218;-73
2022/01/28 10:09:14;;;;;;;27.37;16.87;;;7.10;99.90;;;;;;5037843;28;20209;-73
2022/01/28 10:11:43;;;;;;;46.30;19.67;;;7.10;99.90;;;;;;5042632;28;20181;-73
2022/01/28 10:14:14;;;;;;;27.57;18.40;;;7.10;99.90;;;;;;5045457;28;20173;-72
2022/01/28 10:16:39;;;;;;;36.47;19.17;;;7.30;99.90;;;;;;5035412;28;20235;-72
2022/01/28 10:19:14;;;;;;;30.87;18.87;;;7.30;99.90;;;;;;5047708;28;20261;-72
2022/01/28 10:21:41;;;;;;;30.53;19.53;;;7.40;99.90;;;;;;5033181;28;20181;-73
2022/01/28 10:24:06;;;;;;;25.83;17.93;;;7.30;99.90;;;;;;5031970;28;20630;-73
2022/01/28 10:26:40;;;;;;;26.60;19.23;;;6.80;99.90;;;;;;5048753;28;20267;-74
2022/01/28 10:29:22;;;;;;;29.47;20.03;;;7.00;99.90;;;;;;5032324;28;20291;-73
2022/01/28 10:31:58;;;;;;;34.90;20.20;;;6.80;99.90;;;;;;5032947;28;20311;-74
2022/01/28 10:34:43;;;;;;;27.97;19.93;;;6.70;99.90;;;;;;5046859;28;20308;-71
2022/01/28 10:37:09;;;;;;;40.93;19.63;;;6.90;99.90;;;;;;5036838;28;20628;-74
2022/01/28 10:39:55;;;;;;;49.97;20.33;;;7.00;99.90;;;;;;5043342;28;20174;-74
2022/01/28 10:42:38;;;;;;;30.83;20.27;;;6.60;99.90;;;;;;5032524;28;20177;-74
2022/01/28 10:45:12;;;;;;;33.07;21.20;;;6.80;99.90;;;;;;5037125;28;20193;-72
2022/01/28 10:47:42;;;;;;;38.20;20.57;;;7.10;99.90;;;;;;5042274;28;20176;-72
2022/01/28 10:50:22;;;;;;;73.63;22.77;;;7.20;99.90;;;;;;5013792;28;20181;-73
2022/01/28 10:53:07;;;;;;;36.37;21.67;;;7.30;99.90;;;;;;5035022;28;20239;-73
2022/01/28 10:55:35;;;;;;;33.30;21.80;;;7.40;99.90;;;;;;5040294;28;20284;-73
2022/01/28 10:58:04;;;;;;;32.03;20.90;;;7.30;99.90;;;;;;5042860;28;20227;-74
2022/01/28 11:00:32;;;;;;;43.83;21.80;;;7.50;99.90;;;;;;5032584;28;20212;-74
2022/01/28 11:03:00;;;;;;;34.17;21.50;;;7.60;99.90;;;;;;5038686;28;20165;-72
2022/01/28 11:05:28;;;;;;;35.17;20.90;;;7.60;99.90;;;;;;5038905;28;20222;-73
2022/01/28 11:07:56;;;;;;;32.30;21.33;;;7.60;99.90;;;;;;5040198;28;20610;-73
2022/01/28 11:10:21;;;;;;;36.83;22.60;;;7.70;99.90;;;;;;5045874;28;20212;-73
2022/01/28 11:12:48;;;;;;;34.50;22.40;;;7.80;99.90;;;;;;5041987;28;20197;-73
2022/01/28 11:15:14;;;;;;;35.93;20.87;;;7.80;99.90;;;;;;5036848;28;20185;-72
2022/01/28 11:17:40;;;;;;;48.27;22.40;;;7.80;99.90;;;;;;5042909;28;20182;-72
2022/01/28 11:20:08;;;;;;;38.97;21.33;;;7.90;99.90;;;;;;5040870;28;20185;-72
2022/01/28 11:22:55;;;;;;;39.07;23.20;;;7.80;99.90;;;;;;5048010;28;20181;-72
2022/01/28 11:25:48;;;;;;;35.10;21.93;;;7.80;99.90;;;;;;5033799;28;20201;-72
2022/01/28 11:28:14;;;;;;;33.73;22.67;;;7.60;99.90;;;;;;5039808;28;20300;-72
2022/01/28 11:30:47;;;;;;;38.87;23.33;;;7.70;99.90;;;;;;5045339;28;20252;-73
2022/01/28 11:33:14;;;;;;;47.87;24.03;;;7.70;99.90;;;;;;5049536;28;20174;-72
2022/01/28 11:35:46;;;;;;;41.33;27.20;;;7.90;99.90;;;;;;5038630;28;20174;-72
2022/01/28 11:38:29;;;;;;;42.93;25.93;;;7.90;99.90;;;;;;5038966;28;20174;-72
2022/01/28 11:40:58;;;;;;;52.27;26.67;;;7.80;99.90;;;;;;5052419;28;20205;-72
2022/01/28 11:43:30;;;;;;;38.20;25.00;;;7.80;99.90;;;;;;5051461;28;20169;-71
2022/01/28 11:46:16;;;;;;;38.70;24.63;;;8.00;99.90;;;;;;5043598;28;20700;-72
2022/01/28 11:49:04;;;;;;;42.63;24.90;;;8.00;99.90;;;;;;5046358;28;20224;-72
2022/01/28 11:51:41;;;;;;;53.83;37.10;;;7.90;99.90;;;;;;5034714;28;20268;-72
2022/01/28 11:54:08;;;;;;;42.87;25.53;;;7.80;99.90;;;;;;5054795;28;20169;-72
2022/01/28 11:56:38;;;;;;;42.00;26.30;;;7.80;99.90;;;;;;5054769;28;20244;-73
2022/01/28 11:59:08;;;;;;;46.80;28.17;;;7.90;99.90;;;;;;5054914;28;20185;-72
2022/01/28 12:01:40;;;;;;;40.93;25.67;;;7.80;99.90;;;;;;5055033;28;20227;-72
2022/01/28 12:04:29;;;;;;;39.93;25.17;;;7.90;99.90;;;;;;5055564;28;20537;-73
2022/01/28 12:07:03;;;;;;;43.23;25.17;;;7.60;99.90;;;;;;5054931;28;20161;-72
2022/01/28 12:09:30;;;;;;;43.63;28.53;;;7.70;99.90;;;;;;5053383;28;20685;-73
2022/01/28 12:11:58;;;;;;;46.70;29.27;;;7.70;99.90;;;;;;5054770;28;20645;-73
2022/01/28 12:14:48;;;;;;;49.80;32.07;;;7.90;99.90;;;;;;5055040;28;20189;-74
2022/01/28 12:17:29;;;;;;;42.30;25.90;;;7.90;99.90;;;;;;5054013;28;20181;-72
2022/01/28 12:20:21;;;;;;;44.53;27.67;;;7.80;99.90;;;;;;5055174;28;20176;-72
2022/01/28 12:23:25;;;;;;;44.43;26.50;;;7.60;99.90;;;;;;5054492;28;20183;-73
2022/01/28 12:25:55;;;;;;;50.03;27.53;;;7.50;99.90;;;;;;5053981;28;20311;-73
2022/01/28 12:28:31;;;;;;;50.00;30.83;;;7.40;99.90;;;;;;5054818;28;20217;-72
2022/01/28 12:31:04;;;;;;;46.70;27.37;;;7.60;99.90;;;;;;5054077;28;20176;-72
2022/01/28 12:33:42;;;;;;;44.87;27.07;;;7.50;99.90;;;;;;5054097;28;20173;-72
2022/01/28 12:36:14;;;;;;;54.03;28.70;;;7.60;99.90;;;;;;5054418;28;20223;-72
2022/01/28 12:38:45;;;;;;;53.33;27.17;;;7.70;99.90;;;;;;5054808;28;20176;-72
2022/01/28 12:41:17;;;;;;;51.63;28.13;;;7.70;99.90;;;;;;5053165;28;20238;-73
2022/01/28 12:43:43;;;;;;;53.10;29.60;;;7.80;99.90;;;;;;5054515;28;20178;-73
2022/01/28 12:46:13;;;;;;;54.63;29.23;;;7.80;99.90;;;;;;5053621;28;20165;-72
2022/01/28 12:48:53;;;;;;;52.10;29.13;;;7.90;99.90;;;;;;5054117;28;20205;-72
2022/01/28 12:51:23;;;;;;;54.33;29.70;;;8.00;99.90;;;;;;5054136;28;20196;-72
2022/01/28 12:53:54;;;;;;;55.97;29.53;;;8.00;99.90;;;;;;5054109;28;20184;-72
2022/01/28 12:56:38;;;;;;;62.47;29.97;;;7.90;99.90;;;;;;5054329;28;20173;-73
2022/01/28 12:59:04;;;;;;;61.17;31.47;;;8.00;99.90;;;;;;5053392;28;20173;-72
2022/01/28 13:01:30;;;;;;;58.50;29.77;;;7.90;99.90;;;;;;5053966;28;20173;-72
2022/01/28 13:04:06;;;;;;;53.53;28.63;;;7.70;99.90;;;;;;5054202;28;20267;-72
2022/01/28 13:09:01;;;;;;;56.37;31.60;;;7.40;99.90;;;;;;5053971;28;20220;-72
2022/01/28 13:11:28;;;;;;;61.00;31.07;;;7.50;99.90;;;;;;5053572;28;20196;-72
2022/01/28 13:13:57;;;;;;;55.53;29.30;;;7.40;99.90;;;;;;5053286;28;20535;-72
2022/01/28 13:16:29;;;;;;;61.57;30.90;;;7.40;99.90;;;;;;5053852;28;20174;-72
2022/01/28 13:18:56;;;;;;;54.23;28.27;;;7.40;99.90;;;;;;5053681;28;20659;-72
2022/01/28 13:21:22;;;;;;;54.63;28.90;;;7.40;99.90;;;;;;5053702;28;20201;-72
2022/01/28 13:23:48;;;;;;;59.63;29.70;;;7.40;99.90;;;;;;5053014;28;20207;-73
2022/01/28 13:26:13;;;;;;;56.37;29.63;;;7.30;99.90;;;;;;5053303;28;20225;-73
2022/01/28 13:28:40;;;;;;;62.07;30.47;;;7.40;99.90;;;;;;5035102;28;20224;-72
2022/01/28 13:31:06;;;;;;;56.43;28.70;;;7.20;99.90;;;;;;5053260;28;20184;-72
2022/01/28 13:33:32;;;;;;;62.13;28.27;;;7.10;99.90;;;;;;5053617;28;20174;-73
2022/01/28 13:36:02;;;;;;;59.63;29.77;;;7.30;99.90;;;;;;5053065;28;20518;-73
2022/01/28 13:38:35;;;;;;;64.87;30.43;;;7.40;99.90;;;;;;5053379;28;20204;-72
2022/01/28 13:41:24;;;;;;;61.00;30.00;;;7.50;99.90;;;;;;5053274;28;20192;-73
2022/01/28 13:43:50;;;;;;;57.67;30.67;;;7.50;99.90;;;;;;5052683;28;20173;-72
2022/01/28 13:46:16;;;;;;;59.27;30.83;;;7.60;99.90;;;;;;5053377;28;20173;-73
2022/01/28 13:48:45;;;;;;;64.10;31.83;;;7.70;99.90;;;;;;5052535;28;20205;-73
2022/01/28 13:51:19;;;;;;;59.30;28.30;;;7.60;99.90;;;;;;5052575;28;20585;-72
2022/01/28 13:56:26;;;;;;;65.60;32.30;;;7.60;99.90;;;;;;5053256;28;20169;-72
2022/01/28 13:58:54;;;;;;;62.73;31.70;;;7.70;99.90;;;;;;5051917;28;20533;-73
2022/01/28 14:01:22;;;;;;;58.90;29.63;;;7.70;99.90;;;;;;5035473;28;20173;-73
2022/01/28 14:03:51;;;;;;;64.67;30.47;;;7.60;99.90;;;;;;5051466;28;20181;-74
2022/01/28 14:06:25;;;;;;;58.40;29.60;;;7.50;99.90;;;;;;5053390;28;20177;-71
2022/01/28 14:08:54;;;;;;;61.83;31.47;;;7.40;99.90;;;;;;5052074;28;20217;-72
2022/01/28 14:11:23;;;;;;;71.23;42.50;;;7.40;99.90;;;;;;5051692;28;20252;-71
2022/01/28 14:14:19;;;;;;;65.03;33.50;;;7.50;99.90;;;;;;5052966;28;20174;-72
2022/01/28 14:16:48;;;;;;;60.93;30.27;;;7.40;99.90;;;;;;5052423;28;20165;-72
2022/01/28 14:19:15;;;;;;;60.10;28.70;;;7.70;99.90;;;;;;5052665;28;20177;-73
2022/01/28 14:21:41;;;;;;;58.40;29.87;;;7.70;99.90;;;;;;5052461;28;20262;-72
2022/01/28 14:24:08;;;;;;;62.93;28.60;;;7.80;99.90;;;;;;5052143;28;20495;-72
2022/01/28 14:26:41;;;;;;;61.70;29.37;;;7.90;99.90;;;;;;5052077;28;20221;-72